Terminal Aerodrome Forecast
Issued by NWS

Home | Current Version | Previous Version | Text Only | Print | Product List | Glossary On
Versions: 1 2 3 4 5 6 7 8 9 10 11 12 13 14 15 16 17 18 19 20 21 22 23 24 25 26 27 28 29 30
000
FTUS44 KHGX 291504 AAA
TAFSGR
TAF AMD
KSGR 291504Z 2915/3012 VRB03KT 1/4SM FG VV001
     FM291530 22004KT 4SM BR BKN007
     FM291630 23007KT P6SM SCT015 SCT110 SCT250
     FM292000 26005KT P6SM SCT035 SCT120
     FM300400 36012KT P6SM SCT030 BKN110 BKN200
     FM301100 03011KT P6SM SCT120 OVC200=

USA.gov is the U.S. government's official web portal to all federal, state and local government web resources and services.